Saint Hedwig, TX

04:48 CDT le 21 avril 2015 (GMT -0500)
San Antonio International | | Change Station
CLOSE
Current Station
Aéroport
Location: San Antonio,
Altitude: 794 ft
Stations météo à proximité

Alt. 794 ft 29.53 °N, 98.47 °W | Updated 57 minutes ago

Ciel dégagé
Ciel dégagé
55 ° F
Paraît 55 ° F
N
5
Vent Variable Vent de NO

Aujourd'hui
Haut(e) -- | Bas -- ° F
--% Risque de précip.
Hier
Haut(e) -- | Bas -- ° F
Precip. -- pouce
7:00 AM 8:03 PM
Lune montante, 9% visible
Pression 29.94 pouce
Visibilité 10.0 Miles terrestres
Nuages Peu 25000 ft
Point de rosée 49 ° F
Humidité 80%
Précipitations 0.00 pouce
Profondeur de la couche neigeuse Non disponible.
UV 0 sur 12
Pollen 9.40 sur 12
Qualité de l'air Non disponible.
Flu Activity Local Activity
METAR KSAT 210851Z 31004KT 10SM FEW250 13/09 A2998 RMK AO2 SLP137 T01280094 55010

More Conditions Fewer Conditions

Pression 29.94 pouce
Visibilité 10.0 Miles terrestres
Nuages Peu 25000 ft
Point de rosée 49 ° F
Humidité 80%
Précipitations 0.00 pouce
Profondeur de la couche neigeuse Non disponible.
UV 0 sur 12
Pollen 9.40 sur 12
Qualité de l'air Non disponible.
Flu Activity Local Activity
METAR KSAT 210851Z 31004KT 10SM FEW250 13/09 A2998 RMK AO2 SLP137 T01280094 55010

More Conditions Fewer Conditions

10-Day Weather Forecast

Almanac

Astronomie

Apr. 21, 2015 Lever Coucher
Temps réel
Crépuscule civil
Crépuscule nautique
Crépuscule astronomique
Lune
Durée de lumière visible
Longueur du jour
Tomorrow will be .
, % of the Moon is Illuminated

Extrêmes aujourd'hui

State Highs State Lows

Community

WunderPhotos

Upload Photos

1,815,331 Photos téléchargées !

WunderBlogs® & News

Nearby

Qualité de l'air

  Qualité de l'air Indice de la qualité de l'air Polluant
Not available.

Épaisseur de neige

Station Depth Altitude

Activité sismique

Ville Distance Mag. Time & Date
Minimum magnitude displayed is 2.5.

Températures des eaux côtières

Lieu Température

Stations

Stations météo à proximité

Emplacement de la station Température Refroidissement éolien Point de rosée Humidité Vent Precip. Alt. Mise à jour Type